sensor_id;sensor_type;location;lat;lon;timestamp;temperature;humidity
65582;DHT22;52231;40.090;18.348;2023-12-22T00:02:09;6.30;93.30
65582;DHT22;52231;40.090;18.348;2023-12-22T00:04:38;6.40;93.40
65582;DHT22;52231;40.090;18.348;2023-12-22T00:07:06;6.40;93.40
65582;DHT22;52231;40.090;18.348;2023-12-22T00:09:34;6.50;93.40
65582;DHT22;52231;40.090;18.348;2023-12-22T00:12:02;6.50;93.40
65582;DHT22;52231;40.090;18.348;2023-12-22T00:14:31;6.60;93.40
65582;DHT22;52231;40.090;18.348;2023-12-22T00:16:59;6.60;93.40
65582;DHT22;52231;40.090;18.348;2023-12-22T00:19:27;6.60;93.40
65582;DHT22;52231;40.090;18.348;2023-12-22T00:21:56;6.80;93.50
65582;DHT22;52231;40.090;18.348;2023-12-22T00:24:24;6.70;93.50
65582;DHT22;52231;40.090;18.348;2023-12-22T00:26:52;6.80;93.50
65582;DHT22;52231;40.090;18.348;2023-12-22T00:29:20;6.90;93.60
65582;DHT22;52231;40.090;18.348;2023-12-22T00:31:49;6.90;93.50
65582;DHT22;52231;40.090;18.348;2023-12-22T00:34:17;7.00;93.60
65582;DHT22;52231;40.090;18.348;2023-12-22T00:36:47;7.00;93.60
65582;DHT22;52231;40.090;18.348;2023-12-22T00:39:15;7.00;93.60
65582;DHT22;52231;40.090;18.348;2023-12-22T00:41:43;7.00;93.60
65582;DHT22;52231;40.090;18.348;2023-12-22T00:44:11;7.00;93.70
65582;DHT22;52231;40.090;18.348;2023-12-22T00:46:40;7.00;93.70
65582;DHT22;52231;40.090;18.348;2023-12-22T00:49:08;7.00;93.60
65582;DHT22;52231;40.090;18.348;2023-12-22T00:51:36;7.00;93.70
65582;DHT22;52231;40.090;18.348;2023-12-22T00:54:04;7.10;93.70
65582;DHT22;52231;40.090;18.348;2023-12-22T00:56:32;7.10;93.70
65582;DHT22;52231;40.090;18.348;2023-12-22T00:59:00;7.20;93.70
65582;DHT22;52231;40.090;18.348;2023-12-22T01:01:28;7.10;93.70
65582;DHT22;52231;40.090;18.348;2023-12-22T01:03:56;7.10;93.70
65582;DHT22;52231;40.090;18.348;2023-12-22T01:06:25;7.10;93.70
65582;DHT22;52231;40.090;18.348;2023-12-22T01:08:53;7.20;93.60
65582;DHT22;52231;40.090;18.348;2023-12-22T01:11:21;7.20;93.70
65582;DHT22;52231;40.090;18.348;2023-12-22T01:13:49;7.20;93.60
65582;DHT22;52231;40.090;18.348;2023-12-22T01:16:17;7.20;93.60
65582;DHT22;52231;40.090;18.348;2023-12-22T01:18:50;7.20;93.70
65582;DHT22;52231;40.090;18.348;2023-12-22T01:21:18;7.30;93.70
65582;DHT22;52231;40.090;18.348;2023-12-22T01:23:46;7.40;93.70
65582;DHT22;52231;40.090;18.348;2023-12-22T01:26:14;7.30;93.70
65582;DHT22;52231;40.090;18.348;2023-12-22T01:28:43;7.30;93.70
65582;DHT22;52231;40.090;18.348;2023-12-22T01:31:11;7.40;93.70
65582;DHT22;52231;40.090;18.348;2023-12-22T01:33:39;7.30;93.70
65582;DHT22;52231;40.090;18.348;2023-12-22T01:36:07;7.30;93.70
65582;DHT22;52231;40.090;18.348;2023-12-22T01:38:35;7.30;93.80
65582;DHT22;52231;40.090;18.348;2023-12-22T01:41:03;7.20;93.80
65582;DHT22;52231;40.090;18.348;2023-12-22T01:43:32;7.20;93.80
65582;DHT22;52231;40.090;18.348;2023-12-22T01:46:01;7.20;93.80
65582;DHT22;52231;40.090;18.348;2023-12-22T01:48:30;7.10;93.80
65582;DHT22;52231;40.090;18.348;2023-12-22T01:50:58;7.10;93.80
65582;DHT22;52231;40.090;18.348;2023-12-22T01:53:28;7.00;93.80
65582;DHT22;52231;40.090;18.348;2023-12-22T01:55:59;7.00;93.80
65582;DHT22;52231;40.090;18.348;2023-12-22T01:58:28;6.90;93.80
65582;DHT22;52231;40.090;18.348;2023-12-22T02:01:06;6.90;93.80
65582;DHT22;52231;40.090;18.348;2023-12-22T02:03:35;6.80;93.80
65582;DHT22;52231;40.090;18.348;2023-12-22T02:06:05;6.90;93.80
65582;DHT22;52231;40.090;18.348;2023-12-22T02:08:34;6.90;93.80
65582;DHT22;52231;40.090;18.348;2023-12-22T02:11:02;6.80;93.90
65582;DHT22;52231;40.090;18.348;2023-12-22T02:13:30;6.90;93.90
65582;DHT22;52231;40.090;18.348;2023-12-22T02:16:06;6.80;93.80
65582;DHT22;52231;40.090;18.348;2023-12-22T02:18:43;6.80;93.90
65582;DHT22;52231;40.090;18.348;2023-12-22T02:21:14;6.70;93.80
65582;DHT22;52231;40.090;18.348;2023-12-22T02:23:42;6.70;93.80
65582;DHT22;52231;40.090;18.348;2023-12-22T02:26:35;6.60;93.80
65582;DHT22;52231;40.090;18.348;2023-12-22T02:29:04;6.70;93.90
65582;DHT22;52231;40.090;18.348;2023-12-22T02:31:37;6.60;93.90
65582;DHT22;52231;40.090;18.348;2023-12-22T02:34:07;6.60;93.90
65582;DHT22;52231;40.090;18.348;2023-12-22T02:36:41;6.50;93.80
65582;DHT22;52231;40.090;18.348;2023-12-22T02:39:10;6.40;93.90
65582;DHT22;52231;40.090;18.348;2023-12-22T02:41:39;6.50;93.90
65582;DHT22;52231;40.090;18.348;2023-12-22T02:44:07;6.40;93.90
65582;DHT22;52231;40.090;18.348;2023-12-22T02:46:36;6.40;93.90
65582;DHT22;52231;40.090;18.348;2023-12-22T02:49:04;6.40;94.00
65582;DHT22;52231;40.090;18.348;2023-12-22T02:51:32;6.50;94.00
65582;DHT22;52231;40.090;18.348;2023-12-22T02:54:00;6.50;94.00
65582;DHT22;52231;40.090;18.348;2023-12-22T02:56:28;6.50;94.00
65582;DHT22;52231;40.090;18.348;2023-12-22T02:58:55;6.50;94.00
65582;DHT22;52231;40.090;18.348;2023-12-22T03:01:24;6.60;94.00
65582;DHT22;52231;40.090;18.348;2023-12-22T03:03:52;6.50;94.10
65582;DHT22;52231;40.090;18.348;2023-12-22T03:06:19;6.50;94.00
65582;DHT22;52231;40.090;18.348;2023-12-22T03:08:47;6.60;94.10
65582;DHT22;52231;40.090;18.348;2023-12-22T03:11:16;6.60;94.10
65582;DHT22;52231;40.090;18.348;2023-12-22T03:13:44;6.60;94.10
65582;DHT22;52231;40.090;18.348;2023-12-22T03:16:12;6.70;94.20
65582;DHT22;52231;40.090;18.348;2023-12-22T03:18:41;6.80;94.20
65582;DHT22;52231;40.090;18.348;2023-12-22T03:21:17;6.80;94.20
65582;DHT22;52231;40.090;18.348;2023-12-22T03:23:46;6.90;94.30
65582;DHT22;52231;40.090;18.348;2023-12-22T03:26:14;6.90;94.20
65582;DHT22;52231;40.090;18.348;2023-12-22T03:28:42;6.90;94.30
65582;DHT22;52231;40.090;18.348;2023-12-22T03:31:10;7.10;94.30
65582;DHT22;52231;40.090;18.348;2023-12-22T03:33:38;7.10;94.30
65582;DHT22;52231;40.090;18.348;2023-12-22T03:36:06;7.10;94.30
65582;DHT22;52231;40.090;18.348;2023-12-22T03:38:35;7.10;94.30
65582;DHT22;52231;40.090;18.348;2023-12-22T03:41:04;7.10;94.30
65582;DHT22;52231;40.090;18.348;2023-12-22T03:43:32;7.10;94.20
65582;DHT22;52231;40.090;18.348;2023-12-22T03:46:00;7.10;94.20
65582;DHT22;52231;40.090;18.348;2023-12-22T03:48:28;7.00;94.30
65582;DHT22;52231;40.090;18.348;2023-12-22T03:50:56;7.10;94.30
65582;DHT22;52231;40.090;18.348;2023-12-22T03:53:24;7.10;94.30
65582;DHT22;52231;40.090;18.348;2023-12-22T03:55:52;7.10;94.30
65582;DHT22;52231;40.090;18.348;2023-12-22T03:58:20;7.20;94.30
65582;DHT22;52231;40.090;18.348;2023-12-22T04:00:48;7.30;94.30
65582;DHT22;52231;40.090;18.348;2023-12-22T04:03:16;7.30;94.40
65582;DHT22;52231;40.090;18.348;2023-12-22T04:05:45;7.30;94.30
65582;DHT22;52231;40.090;18.348;2023-12-22T04:08:13;7.30;94.30
65582;DHT22;52231;40.090;18.348;2023-12-22T04:10:41;7.20;94.30
65582;DHT22;52231;40.090;18.348;2023-12-22T04:13:09;7.30;94.30
65582;DHT22;52231;40.090;18.348;2023-12-22T04:15:37;7.30;94.30
65582;DHT22;52231;40.090;18.348;2023-12-22T04:18:05;7.20;94.30
65582;DHT22;52231;40.090;18.348;2023-12-22T04:20:33;7.20;94.30
65582;DHT22;52231;40.090;18.348;2023-12-22T04:23:02;7.10;94.30
65582;DHT22;52231;40.090;18.348;2023-12-22T04:25:30;7.30;94.30
65582;DHT22;52231;40.090;18.348;2023-12-22T04:27:58;7.20;94.30
65582;DHT22;52231;40.090;18.348;2023-12-22T04:30:26;7.30;94.30
65582;DHT22;52231;40.090;18.348;2023-12-22T04:32:57;7.40;94.30
65582;DHT22;52231;40.090;18.348;2023-12-22T04:35:25;7.40;94.20
65582;DHT22;52231;40.090;18.348;2023-12-22T04:37:53;7.40;94.20
65582;DHT22;52231;40.090;18.348;2023-12-22T04:40:21;7.60;94.30
65582;DHT22;52231;40.090;18.348;2023-12-22T04:42:49;7.70;94.30
65582;DHT22;52231;40.090;18.348;2023-12-22T04:45:18;7.60;94.30
65582;DHT22;52231;40.090;18.348;2023-12-22T04:47:46;7.60;94.30
65582;DHT22;52231;40.090;18.348;2023-12-22T04:50:14;7.60;94.30
65582;DHT22;52231;40.090;18.348;2023-12-22T04:52:42;7.60;94.30
65582;DHT22;52231;40.090;18.348;2023-12-22T04:55:10;7.60;94.30
65582;DHT22;52231;40.090;18.348;2023-12-22T04:57:38;7.50;94.30
65582;DHT22;52231;40.090;18.348;2023-12-22T05:00:07;7.40;94.30
65582;DHT22;52231;40.090;18.348;2023-12-22T05:02:35;7.30;94.30
65582;DHT22;52231;40.090;18.348;2023-12-22T05:05:03;7.30;94.30
65582;DHT22;52231;40.090;18.348;2023-12-22T05:07:31;7.20;94.30
65582;DHT22;52231;40.090;18.348;2023-12-22T05:10:00;7.10;94.30
65582;DHT22;52231;40.090;18.348;2023-12-22T05:12:30;7.00;94.20
65582;DHT22;52231;40.090;18.348;2023-12-22T05:14:58;6.90;94.20
65582;DHT22;52231;40.090;18.348;2023-12-22T05:17:26;6.90;94.20
65582;DHT22;52231;40.090;18.348;2023-12-22T05:19:54;6.90;94.20
65582;DHT22;52231;40.090;18.348;2023-12-22T05:22:22;6.80;94.20
65582;DHT22;52231;40.090;18.348;2023-12-22T05:24:50;6.80;94.20
65582;DHT22;52231;40.090;18.348;2023-12-22T05:27:18;6.80;94.20
65582;DHT22;52231;40.090;18.348;2023-12-22T05:29:46;6.80;94.20
65582;DHT22;52231;40.090;18.348;2023-12-22T05:32:15;6.80;94.20
65582;DHT22;52231;40.090;18.348;2023-12-22T05:34:43;6.80;94.20
65582;DHT22;52231;40.090;18.348;2023-12-22T05:37:11;6.80;94.20
65582;DHT22;52231;40.090;18.348;2023-12-22T05:39:39;6.70;94.20
65582;DHT22;52231;40.090;18.348;2023-12-22T05:42:07;6.70;94.20
65582;DHT22;52231;40.090;18.348;2023-12-22T05:44:36;6.70;94.20
65582;DHT22;52231;40.090;18.348;2023-12-22T05:47:07;6.70;94.20
65582;DHT22;52231;40.090;18.348;2023-12-22T05:49:35;6.80;94.20
65582;DHT22;52231;40.090;18.348;2023-12-22T05:52:03;6.80;94.20
65582;DHT22;52231;40.090;18.348;2023-12-22T05:54:31;6.80;94.10
65582;DHT22;52231;40.090;18.348;2023-12-22T05:57:00;6.90;94.20
65582;DHT22;52231;40.090;18.348;2023-12-22T05:59:28;7.00;94.20
65582;DHT22;52231;40.090;18.348;2023-12-22T06:01:57;7.10;94.20
65582;DHT22;52231;40.090;18.348;2023-12-22T06:04:26;7.10;94.20
65582;DHT22;52231;40.090;18.348;2023-12-22T06:06:54;7.30;94.20
65582;DHT22;52231;40.090;18.348;2023-12-22T06:09:23;7.20;94.20
65582;DHT22;52231;40.090;18.348;2023-12-22T06:11:51;7.40;94.20
65582;DHT22;52231;40.090;18.348;2023-12-22T06:14:19;7.50;94.20
65582;DHT22;52231;40.090;18.348;2023-12-22T06:16:47;7.50;94.20
65582;DHT22;52231;40.090;18.348;2023-12-22T06:19:15;7.60;94.20
65582;DHT22;52231;40.090;18.348;2023-12-22T06:21:44;7.60;94.10
65582;DHT22;52231;40.090;18.348;2023-12-22T06:24:12;7.70;94.10
65582;DHT22;52231;40.090;18.348;2023-12-22T06:26:40;7.80;94.20
65582;DHT22;52231;40.090;18.348;2023-12-22T06:29:08;7.90;94.10
65582;DHT22;52231;40.090;18.348;2023-12-22T06:31:37;8.10;94.20
65582;DHT22;52231;40.090;18.348;2023-12-22T06:34:05;8.40;94.20
65582;DHT22;52231;40.090;18.348;2023-12-22T06:36:33;8.60;94.20
65582;DHT22;52231;40.090;18.348;2023-12-22T06:39:01;8.80;94.10
65582;DHT22;52231;40.090;18.348;2023-12-22T06:41:30;9.00;94.20
65582;DHT22;52231;40.090;18.348;2023-12-22T06:43:59;9.00;94.20
65582;DHT22;52231;40.090;18.348;2023-12-22T06:46:30;9.20;94.20
65582;DHT22;52231;40.090;18.348;2023-12-22T06:48:58;9.30;94.20
65582;DHT22;52231;40.090;18.348;2023-12-22T06:51:28;9.30;94.20
65582;DHT22;52231;40.090;18.348;2023-12-22T06:53:59;9.30;94.20
65582;DHT22;52231;40.090;18.348;2023-12-22T06:56:32;9.30;94.20
65582;DHT22;52231;40.090;18.348;2023-12-22T06:59:02;9.30;94.20
65582;DHT22;52231;40.090;18.348;2023-12-22T07:01:31;9.30;94.20
65582;DHT22;52231;40.090;18.348;2023-12-22T07:04:01;9.30;94.20
65582;DHT22;52231;40.090;18.348;2023-12-22T07:06:31;9.40;94.20
65582;DHT22;52231;40.090;18.348;2023-12-22T07:11:44;9.50;94.20
65582;DHT22;52231;40.090;18.348;2023-12-22T07:14:12;9.60;94.20
65582;DHT22;52231;40.090;18.348;2023-12-22T07:16:40;9.60;94.20
65582;DHT22;52231;40.090;18.348;2023-12-22T07:19:10;9.70;94.20
65582;DHT22;52231;40.090;18.348;2023-12-22T07:21:41;9.80;94.20
65582;DHT22;52231;40.090;18.348;2023-12-22T07:24:29;9.80;94.20
65582;DHT22;52231;40.090;18.348;2023-12-22T07:26:57;10.00;94.20
65582;DHT22;52231;40.090;18.348;2023-12-22T07:29:25;10.10;94.20
65582;DHT22;52231;40.090;18.348;2023-12-22T07:31:53;10.20;94.20
65582;DHT22;52231;40.090;18.348;2023-12-22T07:34:22;10.20;94.20
65582;DHT22;52231;40.090;18.348;2023-12-22T07:36:50;10.30;94.20
65582;DHT22;52231;40.090;18.348;2023-12-22T07:39:21;10.30;94.20
65582;DHT22;52231;40.090;18.348;2023-12-22T07:41:50;10.40;94.20
65582;DHT22;52231;40.090;18.348;2023-12-22T07:44:18;10.40;94.20
65582;DHT22;52231;40.090;18.348;2023-12-22T07:46:56;10.30;94.20
65582;DHT22;52231;40.090;18.348;2023-12-22T07:49:27;10.20;94.20
65582;DHT22;52231;40.090;18.348;2023-12-22T07:51:55;10.20;94.20
65582;DHT22;52231;40.090;18.348;2023-12-22T07:54:23;10.10;94.20
65582;DHT22;52231;40.090;18.348;2023-12-22T07:56:51;10.10;94.20
65582;DHT22;52231;40.090;18.348;2023-12-22T07:59:20;10.00;94.20
65582;DHT22;52231;40.090;18.348;2023-12-22T08:01:48;10.00;94.20
65582;DHT22;52231;40.090;18.348;2023-12-22T08:04:17;9.90;94.20
65582;DHT22;52231;40.090;18.348;2023-12-22T08:06:45;10.20;94.20
65582;DHT22;52231;40.090;18.348;2023-12-22T08:09:14;10.70;94.20
65582;DHT22;52231;40.090;18.348;2023-12-22T08:11:43;11.30;94.10
65582;DHT22;52231;40.090;18.348;2023-12-22T08:14:17;11.60;94.10
65582;DHT22;52231;40.090;18.348;2023-12-22T08:16:45;11.70;94.20
65582;DHT22;52231;40.090;18.348;2023-12-22T08:19:14;12.00;94.10
65582;DHT22;52231;40.090;18.348;2023-12-22T08:21:45;12.30;94.10
65582;DHT22;52231;40.090;18.348;2023-12-22T08:24:14;12.80;94.00
65582;DHT22;52231;40.090;18.348;2023-12-22T08:26:43;13.00;93.80
65582;DHT22;52231;40.090;18.348;2023-12-22T08:29:11;13.20;93.70
65582;DHT22;52231;40.090;18.348;2023-12-22T08:31:39;13.30;93.40
65582;DHT22;52231;40.090;18.348;2023-12-22T08:34:07;13.50;92.80
65582;DHT22;52231;40.090;18.348;2023-12-22T08:36:35;13.80;91.90
65582;DHT22;52231;40.090;18.348;2023-12-22T08:39:03;13.80;90.10
65582;DHT22;52231;40.090;18.348;2023-12-22T08:41:33;14.00;88.10
65582;DHT22;52231;40.090;18.348;2023-12-22T08:44:04;14.20;86.30
65582;DHT22;52231;40.090;18.348;2023-12-22T08:46:33;14.50;85.30
65582;DHT22;52231;40.090;18.348;2023-12-22T08:49:02;14.70;83.40
65582;DHT22;52231;40.090;18.348;2023-12-22T08:51:31;14.80;81.20
65582;DHT22;52231;40.090;18.348;2023-12-22T08:53:59;15.00;80.50
65582;DHT22;52231;40.090;18.348;2023-12-22T08:56:27;15.10;79.10
65582;DHT22;52231;40.090;18.348;2023-12-22T08:58:55;15.20;78.30
65582;DHT22;52231;40.090;18.348;2023-12-22T09:01:27;15.30;77.90
65582;DHT22;52231;40.090;18.348;2023-12-22T09:03:55;15.40;77.20
65582;DHT22;52231;40.090;18.348;2023-12-22T09:06:24;15.50;76.20
65582;DHT22;52231;40.090;18.348;2023-12-22T09:08:53;15.50;75.30
65582;DHT22;52231;40.090;18.348;2023-12-22T09:11:21;15.70;74.90
65582;DHT22;52231;40.090;18.348;2023-12-22T09:13:49;15.70;74.00
65582;DHT22;52231;40.090;18.348;2023-12-22T09:16:22;15.90;73.60
65582;DHT22;52231;40.090;18.348;2023-12-22T09:18:51;15.90;70.50
65582;DHT22;52231;40.090;18.348;2023-12-22T09:21:19;15.90;70.20
65582;DHT22;52231;40.090;18.348;2023-12-22T09:23:48;16.00;69.60
65582;DHT22;52231;40.090;18.348;2023-12-22T09:26:18;16.10;69.30
65582;DHT22;52231;40.090;18.348;2023-12-22T09:28:46;16.10;68.80
65582;DHT22;52231;40.090;18.348;2023-12-22T09:31:15;16.10;68.10
65582;DHT22;52231;40.090;18.348;2023-12-22T09:33:43;16.10;66.10
65582;DHT22;52231;40.090;18.348;2023-12-22T09:36:11;16.20;65.80
65582;DHT22;52231;40.090;18.348;2023-12-22T09:38:39;16.30;65.50
65582;DHT22;52231;40.090;18.348;2023-12-22T09:41:11;16.20;65.50
65582;DHT22;52231;40.090;18.348;2023-12-22T09:43:40;16.30;65.20
65582;DHT22;52231;40.090;18.348;2023-12-22T09:46:09;16.40;65.40
65582;DHT22;52231;40.090;18.348;2023-12-22T09:48:37;16.50;63.90
65582;DHT22;52231;40.090;18.348;2023-12-22T09:51:08;16.60;63.40
65582;DHT22;52231;40.090;18.348;2023-12-22T09:53:38;16.70;63.80
65582;DHT22;52231;40.090;18.348;2023-12-22T09:56:07;16.80;63.90
65582;DHT22;52231;40.090;18.348;2023-12-22T09:58:36;16.80;63.70
65582;DHT22;52231;40.090;18.348;2023-12-22T10:01:06;16.80;62.90
65582;DHT22;52231;40.090;18.348;2023-12-22T10:03:37;16.80;62.60
65582;DHT22;52231;40.090;18.348;2023-12-22T10:06:24;16.90;62.70
65582;DHT22;52231;40.090;18.348;2023-12-22T10:08:53;16.90;62.30
65582;DHT22;52231;40.090;18.348;2023-12-22T10:11:22;17.00;62.30
65582;DHT22;52231;40.090;18.348;2023-12-22T10:14:17;17.00;62.00
65582;DHT22;52231;40.090;18.348;2023-12-22T10:16:52;17.00;62.20
65582;DHT22;52231;40.090;18.348;2023-12-22T10:19:20;17.10;62.20
65582;DHT22;52231;40.090;18.348;2023-12-22T10:21:49;17.30;61.20
65582;DHT22;52231;40.090;18.348;2023-12-22T10:24:41;17.20;59.20
65582;DHT22;52231;40.090;18.348;2023-12-22T10:27:11;17.10;60.30
65582;DHT22;52231;40.090;18.348;2023-12-22T10:29:39;17.10;59.70
65582;DHT22;52231;40.090;18.348;2023-12-22T10:32:08;17.10;60.10
65582;DHT22;52231;40.090;18.348;2023-12-22T10:34:41;17.20;61.00
65582;DHT22;52231;40.090;18.348;2023-12-22T10:37:10;17.30;60.90
65582;DHT22;52231;40.090;18.348;2023-12-22T10:39:41;17.30;60.30
65582;DHT22;52231;40.090;18.348;2023-12-22T10:42:10;17.10;60.60
65582;DHT22;52231;40.090;18.348;2023-12-22T10:44:39;17.20;60.90
65582;DHT22;52231;40.090;18.348;2023-12-22T10:47:07;17.30;61.20
65582;DHT22;52231;40.090;18.348;2023-12-22T10:49:36;17.30;60.70
65582;DHT22;52231;40.090;18.348;2023-12-22T10:52:04;17.30;60.80
65582;DHT22;52231;40.090;18.348;2023-12-22T10:54:33;17.30;60.90
65582;DHT22;52231;40.090;18.348;2023-12-22T10:57:03;17.30;60.30
65582;DHT22;52231;40.090;18.348;2023-12-22T10:59:33;17.40;59.60
65582;DHT22;52231;40.090;18.348;2023-12-22T11:02:04;17.40;59.90
65582;DHT22;52231;40.090;18.348;2023-12-22T11:04:38;17.50;59.80
65582;DHT22;52231;40.090;18.348;2023-12-22T11:07:08;17.60;59.80
65582;DHT22;52231;40.090;18.348;2023-12-22T11:09:38;17.60;59.50
65582;DHT22;52231;40.090;18.348;2023-12-22T11:12:07;17.70;60.00
65582;DHT22;52231;40.090;18.348;2023-12-22T11:14:36;17.80;60.40
65582;DHT22;52231;40.090;18.348;2023-12-22T11:17:06;17.70;60.20
65582;DHT22;52231;40.090;18.348;2023-12-22T11:19:39;17.80;60.90
65582;DHT22;52231;40.090;18.348;2023-12-22T11:22:09;17.80;59.20
65582;DHT22;52231;40.090;18.348;2023-12-22T11:24:38;17.80;60.20
65582;DHT22;52231;40.090;18.348;2023-12-22T11:27:08;17.70;59.80
65582;DHT22;52231;40.090;18.348;2023-12-22T11:29:38;17.60;59.10
65582;DHT22;52231;40.090;18.348;2023-12-22T11:32:09;17.60;58.90
65582;DHT22;52231;40.090;18.348;2023-12-22T11:34:39;17.40;58.50
65582;DHT22;52231;40.090;18.348;2023-12-22T11:37:11;17.50;59.30
65582;DHT22;52231;40.090;18.348;2023-12-22T11:39:44;17.60;59.00
65582;DHT22;52231;40.090;18.348;2023-12-22T11:42:18;17.80;59.80
65582;DHT22;52231;40.090;18.348;2023-12-22T11:44:47;17.80;60.20
65582;DHT22;52231;40.090;18.348;2023-12-22T11:47:16;17.80;60.00
65582;DHT22;52231;40.090;18.348;2023-12-22T11:49:45;17.70;59.90
65582;DHT22;52231;40.090;18.348;2023-12-22T11:52:15;17.60;60.40
65582;DHT22;52231;40.090;18.348;2023-12-22T12:00:07;17.80;59.80
65582;DHT22;52231;40.090;18.348;2023-12-22T12:02:41;17.70;59.00
65582;DHT22;52231;40.090;18.348;2023-12-22T12:05:15;17.70;59.50
65582;DHT22;52231;40.090;18.348;2023-12-22T12:08:07;17.70;60.00
65582;DHT22;52231;40.090;18.348;2023-12-22T12:10:36;17.80;60.50
65582;DHT22;52231;40.090;18.348;2023-12-22T12:13:22;17.90;60.70
65582;DHT22;52231;40.090;18.348;2023-12-22T12:15:56;17.80;60.40
65582;DHT22;52231;40.090;18.348;2023-12-22T12:18:30;17.90;60.70
65582;DHT22;52231;40.090;18.348;2023-12-22T12:21:02;17.90;61.00
65582;DHT22;52231;40.090;18.348;2023-12-22T12:23:30;17.90;60.50
65582;DHT22;52231;40.090;18.348;2023-12-22T12:25:59;17.90;61.00
65582;DHT22;52231;40.090;18.348;2023-12-22T12:28:30;17.80;61.00
65582;DHT22;52231;40.090;18.348;2023-12-22T12:31:06;17.80;61.20
65582;DHT22;52231;40.090;18.348;2023-12-22T12:33:38;17.80;61.40
65582;DHT22;52231;40.090;18.348;2023-12-22T12:36:26;17.90;61.30
65582;DHT22;52231;40.090;18.348;2023-12-22T12:39:14;17.80;60.70
65582;DHT22;52231;40.090;18.348;2023-12-22T12:41:52;17.80;61.30
65582;DHT22;52231;40.090;18.348;2023-12-22T12:44:22;17.80;61.50
65582;DHT22;52231;40.090;18.348;2023-12-22T12:46:52;17.70;61.70
65582;DHT22;52231;40.090;18.348;2023-12-22T12:49:20;17.60;62.40
65582;DHT22;52231;40.090;18.348;2023-12-22T12:51:49;17.70;62.80
65582;DHT22;52231;40.090;18.348;2023-12-22T12:54:17;17.80;63.00
65582;DHT22;52231;40.090;18.348;2023-12-22T12:56:46;17.70;63.40
65582;DHT22;52231;40.090;18.348;2023-12-22T12:59:16;17.70;63.60
65582;DHT22;52231;40.090;18.348;2023-12-22T13:01:47;17.80;63.80
65582;DHT22;52231;40.090;18.348;2023-12-22T13:04:15;17.80;63.90
65582;DHT22;52231;40.090;18.348;2023-12-22T13:06:50;17.80;64.40
65582;DHT22;52231;40.090;18.348;2023-12-22T13:09:20;17.80;64.90
65582;DHT22;52231;40.090;18.348;2023-12-22T13:11:49;17.80;65.60
65582;DHT22;52231;40.090;18.348;2023-12-22T13:14:24;17.80;65.70
65582;DHT22;52231;40.090;18.348;2023-12-22T13:16:56;17.70;66.50
65582;DHT22;52231;40.090;18.348;2023-12-22T13:19:25;17.70;67.00
65582;DHT22;52231;40.090;18.348;2023-12-22T13:21:54;17.70;67.40
65582;DHT22;52231;40.090;18.348;2023-12-22T13:24:23;17.60;67.40
65582;DHT22;52231;40.090;18.348;2023-12-22T13:27:03;17.50;67.50
65582;DHT22;52231;40.090;18.348;2023-12-22T13:29:46;17.40;67.00
65582;DHT22;52231;40.090;18.348;2023-12-22T13:32:18;17.40;66.80
65582;DHT22;52231;40.090;18.348;2023-12-22T13:34:54;17.30;66.70
65582;DHT22;52231;40.090;18.348;2023-12-22T13:37:23;17.30;66.00
65582;DHT22;52231;40.090;18.348;2023-12-22T13:39:54;17.20;66.30
65582;DHT22;52231;40.090;18.348;2023-12-22T13:42:23;17.20;67.00
65582;DHT22;52231;40.090;18.348;2023-12-22T13:44:52;17.10;67.20
65582;DHT22;52231;40.090;18.348;2023-12-22T13:47:23;17.10;67.50
65582;DHT22;52231;40.090;18.348;2023-12-22T13:49:53;17.10;67.80
65582;DHT22;52231;40.090;18.348;2023-12-22T13:52:30;17.10;67.60
65582;DHT22;52231;40.090;18.348;2023-12-22T13:55:15;17.00;67.60
65582;DHT22;52231;40.090;18.348;2023-12-22T13:57:44;17.00;67.90
65582;DHT22;52231;40.090;18.348;2023-12-22T14:02:47;16.80;68.60
65582;DHT22;52231;40.090;18.348;2023-12-22T14:05:19;16.80;68.90
65582;DHT22;52231;40.090;18.348;2023-12-22T14:07:47;16.70;69.40
65582;DHT22;52231;40.090;18.348;2023-12-22T14:10:16;16.60;69.60
65582;DHT22;52231;40.090;18.348;2023-12-22T14:12:45;16.60;70.00
65582;DHT22;52231;40.090;18.348;2023-12-22T14:15:14;16.60;70.20
65582;DHT22;52231;40.090;18.348;2023-12-22T14:17:42;16.50;70.50
65582;DHT22;52231;40.090;18.348;2023-12-22T14:20:10;16.40;70.90
65582;DHT22;52231;40.090;18.348;2023-12-22T14:22:39;16.30;71.40
65582;DHT22;52231;40.090;18.348;2023-12-22T14:25:08;16.20;71.60
65582;DHT22;52231;40.090;18.348;2023-12-22T14:27:36;16.10;71.80
65582;DHT22;52231;40.090;18.348;2023-12-22T14:30:05;16.10;72.00
65582;DHT22;52231;40.090;18.348;2023-12-22T14:32:34;16.00;72.20
65582;DHT22;52231;40.090;18.348;2023-12-22T14:35:02;15.90;72.60
65582;DHT22;52231;40.090;18.348;2023-12-22T14:37:31;15.80;72.90
65582;DHT22;52231;40.090;18.348;2023-12-22T14:39:59;15.70;73.20
65582;DHT22;52231;40.090;18.348;2023-12-22T14:42:28;15.60;73.50
65582;DHT22;52231;40.090;18.348;2023-12-22T14:44:56;15.50;73.80
65582;DHT22;52231;40.090;18.348;2023-12-22T14:47:24;15.40;74.10
65582;DHT22;52231;40.090;18.348;2023-12-22T14:49:52;15.30;74.60
65582;DHT22;52231;40.090;18.348;2023-12-22T14:52:21;15.20;75.00
65582;DHT22;52231;40.090;18.348;2023-12-22T14:54:55;15.10;75.50
65582;DHT22;52231;40.090;18.348;2023-12-22T14:57:23;14.90;76.00
65582;DHT22;52231;40.090;18.348;2023-12-22T14:59:51;14.80;76.40
65582;DHT22;52231;40.090;18.348;2023-12-22T15:02:19;14.80;76.60
65582;DHT22;52231;40.090;18.348;2023-12-22T15:04:48;14.60;77.00
65582;DHT22;52231;40.090;18.348;2023-12-22T15:07:18;14.50;77.40
65582;DHT22;52231;40.090;18.348;2023-12-22T15:09:47;14.40;77.70
65582;DHT22;52231;40.090;18.348;2023-12-22T15:12:18;14.30;78.20
65582;DHT22;52231;40.090;18.348;2023-12-22T15:14:46;14.20;78.70
65582;DHT22;52231;40.090;18.348;2023-12-22T15:17:14;14.10;79.10
65582;DHT22;52231;40.090;18.348;2023-12-22T15:20:03;14.00;79.50
65582;DHT22;52231;40.090;18.348;2023-12-22T15:22:33;13.90;80.00
65582;DHT22;52231;40.090;18.348;2023-12-22T15:25:02;13.80;80.40
65582;DHT22;52231;40.090;18.348;2023-12-22T15:27:30;13.80;81.00
65582;DHT22;52231;40.090;18.348;2023-12-22T15:29:58;13.70;81.40
65582;DHT22;52231;40.090;18.348;2023-12-22T15:32:27;13.50;82.00
65582;DHT22;52231;40.090;18.348;2023-12-22T15:34:55;13.40;82.40
65582;DHT22;52231;40.090;18.348;2023-12-22T15:37:23;13.40;82.90
65582;DHT22;52231;40.090;18.348;2023-12-22T15:39:51;13.30;83.40
65582;DHT22;52231;40.090;18.348;2023-12-22T15:42:20;13.20;83.80
65582;DHT22;52231;40.090;18.348;2023-12-22T15:44:48;13.20;84.30
65582;DHT22;52231;40.090;18.348;2023-12-22T15:47:16;13.10;84.70
65582;DHT22;52231;40.090;18.348;2023-12-22T15:49:44;13.00;85.00